createdAt,value
2023-01-18T00:02:02.548Z,1.23
2023-01-18T00:04:28.848Z,1.13
2023-01-18T00:06:55.173Z,1.00
2023-01-18T00:09:21.467Z,1.60
2023-01-18T00:11:48.973Z,1.37
2023-01-18T00:14:15.360Z,1.60
2023-01-18T00:16:41.716Z,0.83
2023-01-18T00:19:13.097Z,1.13
2023-01-18T00:21:40.937Z,1.00
2023-01-18T00:24:11.045Z,1.80
2023-01-18T00:26:38.008Z,1.50
2023-01-18T00:29:04.912Z,1.47
2023-01-18T00:31:31.658Z,1.50
2023-01-18T00:33:58.006Z,1.30
2023-01-18T00:36:24.323Z,1.33
2023-01-18T00:38:54.222Z,1.50
2023-01-18T00:41:21.617Z,1.70
2023-01-18T00:43:48.061Z,1.40
2023-01-18T00:46:18.973Z,1.50
2023-01-18T00:48:45.809Z,1.60
2023-01-18T00:51:14.042Z,1.27
2023-01-18T00:53:40.751Z,1.63
2023-01-18T00:56:08.803Z,1.60
2023-01-18T00:58:35.261Z,1.43
2023-01-18T01:01:01.673Z,1.67
2023-01-18T01:03:28.188Z,1.87
2023-01-18T01:06:13.137Z,1.83
2023-01-18T01:08:39.532Z,1.90
2023-01-18T01:11:07.221Z,1.67
2023-01-18T01:13:52.242Z,2.13
2023-01-18T01:16:37.323Z,1.87
2023-01-18T01:19:22.416Z,1.83
2023-01-18T01:22:07.337Z,1.47
2023-01-18T01:24:58.141Z,1.67
2023-01-18T01:27:24.474Z,1.43
2023-01-18T01:29:51.622Z,1.77
2023-01-18T01:32:18.092Z,2.03
2023-01-18T01:34:44.407Z,2.10
2023-01-18T01:37:10.846Z,2.13
2023-01-18T01:39:37.150Z,2.03
2023-01-18T01:42:03.471Z,1.63
2023-01-18T01:44:34.373Z,1.60
2023-01-18T01:47:06.076Z,1.97
2023-01-18T01:49:34.699Z,1.60
2023-01-18T01:52:06.043Z,2.20
2023-01-18T01:54:32.303Z,2.23
2023-01-18T01:57:06.094Z,2.27
2023-01-18T01:59:34.055Z,1.77
2023-01-18T02:02:00.610Z,1.93
2023-01-18T02:04:27.033Z,1.77
2023-01-18T02:06:53.342Z,2.10
2023-01-18T02:09:23.275Z,2.00
2023-01-18T02:11:51.900Z,2.40
2023-01-18T02:14:19.531Z,2.20
2023-01-18T02:16:45.788Z,2.13
2023-01-18T02:19:21.268Z,1.97
2023-01-18T02:21:51.887Z,2.20
2023-01-18T02:24:20.996Z,1.50
2023-01-18T02:26:59.143Z,1.60
2023-01-18T02:30:01.002Z,1.77
2023-01-18T02:32:46.223Z,1.70
2023-01-18T02:35:17.432Z,1.80
2023-01-18T02:38:02.524Z,1.93
2023-01-18T02:40:35.667Z,1.90
2023-01-18T02:43:22.006Z,1.77
2023-01-18T02:46:08.424Z,1.47
2023-01-18T02:48:39.645Z,1.63
2023-01-18T02:51:06.353Z,1.63
2023-01-18T02:53:34.004Z,1.67
2023-01-18T02:56:02.015Z,1.57
2023-01-18T02:58:33.259Z,1.47
2023-01-18T03:01:01.500Z,2.10
2023-01-18T03:03:28.271Z,1.60
2023-01-18T03:05:58.215Z,1.63
2023-01-18T03:08:32.474Z,1.23
2023-01-18T03:11:08.025Z,1.60
2023-01-18T03:13:54.582Z,1.57
2023-01-18T03:16:25.891Z,1.50
2023-01-18T03:19:15.152Z,1.20
2023-01-18T03:21:43.070Z,1.40
2023-01-18T03:24:10.036Z,1.37
2023-01-18T03:26:39.573Z,0.97
2023-01-18T03:29:25.165Z,1.60
2023-01-18T03:32:12.410Z,1.47
2023-01-18T03:34:42.759Z,1.00
2023-01-18T03:37:11.386Z,1.17
2023-01-18T03:39:51.626Z,1.20
2023-01-18T03:42:20.347Z,1.17
2023-01-18T03:44:50.875Z,1.33
2023-01-18T03:47:17.417Z,1.23
2023-01-18T03:49:43.730Z,1.20
2023-01-18T03:52:32.401Z,1.30
2023-01-18T03:54:58.779Z,1.13
2023-01-18T03:57:32.916Z,1.20
2023-01-18T03:59:59.964Z,1.60
2023-01-18T04:02:26.729Z,1.40
2023-01-18T04:04:57.566Z,1.33
2023-01-18T04:07:26.957Z,1.10
2023-01-18T04:09:53.496Z,1.00
2023-01-18T04:12:19.843Z,1.10
2023-01-18T04:14:46.143Z,0.90
2023-01-18T04:17:12.510Z,0.90
2023-01-18T04:19:40.493Z,1.10
2023-01-18T04:22:09.645Z,1.03
2023-01-18T04:24:36.117Z,1.03
2023-01-18T04:27:02.864Z,1.17
2023-01-18T04:29:29.324Z,1.00
2023-01-18T04:31:55.614Z,1.20
2023-01-18T04:34:23.045Z,1.17
2023-01-18T04:36:52.435Z,1.50
2023-01-18T04:39:19.161Z,1.57
2023-01-18T04:41:45.579Z,1.30
2023-01-18T04:44:12.836Z,1.20
2023-01-18T04:46:39.457Z,1.50
2023-01-18T04:49:06.476Z,1.40
2023-01-18T04:51:32.926Z,1.50
2023-01-18T04:53:59.422Z,1.60
2023-01-18T04:56:25.778Z,1.50
2023-01-18T04:58:52.566Z,1.53
2023-01-18T05:01:18.964Z,1.30
2023-01-18T05:03:45.441Z,1.20
2023-01-18T05:06:12.414Z,1.50
2023-01-18T05:08:41.753Z,1.40
2023-01-18T05:11:18.765Z,1.30
2023-01-18T05:13:45.586Z,1.53
2023-01-18T05:16:16.275Z,1.30
2023-01-18T05:18:43.115Z,1.30
2023-01-18T05:21:09.841Z,1.07
2023-01-18T05:23:36.295Z,1.17
2023-01-18T05:26:03.542Z,1.10
2023-01-18T05:28:29.821Z,1.23
2023-01-18T05:30:56.119Z,1.13
2023-01-18T05:33:22.674Z,1.07
2023-01-18T05:35:52.949Z,1.00
2023-01-18T05:38:19.476Z,1.53
2023-01-18T05:40:47.899Z,1.10
2023-01-18T05:43:14.295Z,2.07
2023-01-18T05:45:42.172Z,1.10
2023-01-18T05:48:08.943Z,1.20
2023-01-18T05:50:35.239Z,1.10
2023-01-18T05:53:01.953Z,1.30
2023-01-18T05:55:28.396Z,1.07
2023-01-18T05:57:54.739Z,1.00
2023-01-18T06:00:23.397Z,0.77
2023-01-18T06:02:49.795Z,1.00
2023-01-18T06:05:16.166Z,0.73
2023-01-18T06:07:42.499Z,0.67
2023-01-18T06:10:09.222Z,0.80
2023-01-18T06:12:35.619Z,1.10
2023-01-18T06:15:01.965Z,0.80
2023-01-18T06:17:31.251Z,0.77
2023-01-18T06:19:58.643Z,0.87
2023-01-18T06:22:24.949Z,0.90
2023-01-18T06:24:51.312Z,0.80
2023-01-18T06:27:17.659Z,0.90
2023-01-18T06:29:43.958Z,0.67
2023-01-18T06:32:10.368Z,1.00
2023-01-18T06:34:39.615Z,1.10
2023-01-18T06:37:05.907Z,0.93
2023-01-18T06:39:32.298Z,1.47
2023-01-18T06:41:58.605Z,0.87
2023-01-18T06:44:24.955Z,1.13
2023-01-18T06:46:51.287Z,1.10
2023-01-18T06:49:18.553Z,1.00
2023-01-18T06:51:45.023Z,1.40
2023-01-18T06:54:11.681Z,1.17
2023-01-18T06:56:38.087Z,1.13
2023-01-18T06:59:04.728Z,1.07
2023-01-18T07:01:31.957Z,1.43
2023-01-18T07:03:58.494Z,1.07
2023-01-18T07:06:24.898Z,0.93
2023-01-18T07:08:51.241Z,0.80
2023-01-18T07:11:18.599Z,0.80
2023-01-18T07:13:46.134Z,1.07
2023-01-18T07:16:18.121Z,0.80
2023-01-18T07:18:46.759Z,0.60
2023-01-18T07:21:15.162Z,1.10
2023-01-18T07:23:42.348Z,0.80
2023-01-18T07:26:10.010Z,0.90
2023-01-18T07:28:36.560Z,1.00
2023-01-18T07:31:03.840Z,0.87
2023-01-18T07:33:30.441Z,0.60
2023-01-18T07:35:57.412Z,1.00
2023-01-18T07:38:24.109Z,0.73
2023-01-18T07:40:50.779Z,0.77
2023-01-18T07:43:17.731Z,1.00
2023-01-18T07:45:44.543Z,1.20
2023-01-18T07:48:16.775Z,0.73
2023-01-18T07:50:44.160Z,1.10
2023-01-18T07:53:10.453Z,0.90
2023-01-18T07:55:38.779Z,1.17
2023-01-18T07:58:05.162Z,0.83
2023-01-18T08:00:31.608Z,1.00
2023-01-18T08:02:59.275Z,0.90
2023-01-18T08:05:26.861Z,0.93
2023-01-18T08:07:53.950Z,0.80
2023-01-18T08:10:21.149Z,0.90
2023-01-18T08:12:48.720Z,1.03
2023-01-18T08:15:15.159Z,0.90
2023-01-18T08:17:42.355Z,1.47
2023-01-18T08:20:09.463Z,1.03
2023-01-18T08:22:36.354Z,0.80
2023-01-18T08:25:03.178Z,1.70
2023-01-18T08:27:29.531Z,1.77
2023-01-18T08:29:56.749Z,1.87
2023-01-18T08:32:23.382Z,1.10
2023-01-18T08:34:49.812Z,1.20
2023-01-18T08:37:17.341Z,1.90
2023-01-18T08:39:43.769Z,1.60
2023-01-18T08:42:11.269Z,1.40
2023-01-18T08:44:37.586Z,1.90
2023-01-18T08:47:03.904Z,1.63
2023-01-18T08:49:32.627Z,1.60
2023-01-18T08:51:58.993Z,1.63
2023-01-18T08:54:26.363Z,1.30
2023-01-18T08:56:52.937Z,1.60
2023-01-18T08:59:20.035Z,1.40
2023-01-18T09:01:46.473Z,1.63
2023-01-18T09:04:13.727Z,1.73
2023-01-18T09:06:40.201Z,1.60
2023-01-18T09:09:06.496Z,1.50
2023-01-18T09:11:32.833Z,1.67
2023-01-18T09:14:01.410Z,2.07
2023-01-18T09:16:28.958Z,1.63
2023-01-18T09:18:56.293Z,1.73
2023-01-18T09:21:24.130Z,1.87
2023-01-18T09:23:50.964Z,2.17
2023-01-18T09:26:18.279Z,1.33
2023-01-18T09:28:44.956Z,1.43
2023-01-18T09:31:12.420Z,1.67
2023-01-18T09:33:39.691Z,1.60
2023-01-18T09:36:09.698Z,1.33
2023-01-18T09:38:36.932Z,1.80
2023-01-18T09:41:06.003Z,1.60
2023-01-18T09:43:35.135Z,1.20
2023-01-18T09:46:02.054Z,1.60
2023-01-18T09:48:38.044Z,1.80
2023-01-18T09:51:10.113Z,1.60
2023-01-18T09:53:50.587Z,1.50
2023-01-18T09:56:23.146Z,1.57
2023-01-18T09:58:55.553Z,1.60
2023-01-18T10:01:24.412Z,1.10
2023-01-18T10:03:53.441Z,1.77
2023-01-18T10:06:22.928Z,1.50
2023-01-18T10:08:59.538Z,1.60
2023-01-18T10:11:33.560Z,2.00
2023-01-18T10:13:59.908Z,1.50
2023-01-18T10:16:26.461Z,1.47
2023-01-18T10:18:55.676Z,1.97
2023-01-18T10:21:45.087Z,1.50
2023-01-18T10:24:34.970Z,1.60
2023-01-18T10:27:13.008Z,2.23
2023-01-18T10:29:51.780Z,1.40
2023-01-18T10:32:20.448Z,1.53
2023-01-18T10:34:49.377Z,1.00
2023-01-18T10:37:30.771Z,0.97
2023-01-18T10:40:01.800Z,0.60
2023-01-18T10:42:34.467Z,0.80
2023-01-18T10:45:00.854Z,1.03
2023-01-18T10:47:27.184Z,1.17
2023-01-18T10:49:58.359Z,1.00
2023-01-18T10:52:31.690Z,0.93
2023-01-18T10:55:01.271Z,0.70
2023-01-18T10:57:27.571Z,1.03
2023-01-18T10:59:56.641Z,0.50
2023-01-18T11:02:24.980Z,0.90
2023-01-18T11:04:56.839Z,0.73
2023-01-18T11:07:25.580Z,0.70
2023-01-18T11:09:56.133Z,0.80
2023-01-18T11:12:34.868Z,0.70
2023-01-18T11:15:13.089Z,1.03
2023-01-18T11:17:39.853Z,0.73
2023-01-18T11:20:07.609Z,0.60
2023-01-18T11:22:34.993Z,0.77
2023-01-18T11:25:01.474Z,0.83
2023-01-18T11:27:27.929Z,0.40
2023-01-18T11:29:54.557Z,0.60
2023-01-18T11:32:24.027Z,0.50
2023-01-18T11:34:51.844Z,0.40
2023-01-18T11:37:23.915Z,0.50
2023-01-18T11:39:50.219Z,0.73
2023-01-18T11:42:27.637Z,0.80
2023-01-18T11:45:00.179Z,0.60
2023-01-18T11:47:46.757Z,0.83
2023-01-18T11:50:22.125Z,0.70
2023-01-18T11:52:54.100Z,0.67
2023-01-18T11:55:35.013Z,0.80
2023-01-18T11:58:01.908Z,0.90
2023-01-18T12:00:31.536Z,0.60
2023-01-18T12:03:20.684Z,0.80
2023-01-18T12:06:03.979Z,0.80
2023-01-18T12:08:39.471Z,0.60
2023-01-18T12:11:08.833Z,0.70
2023-01-18T12:13:35.115Z,0.90
2023-01-18T12:16:09.374Z,0.73
2023-01-18T12:18:47.883Z,0.90
2023-01-18T12:21:18.954Z,0.93
2023-01-18T12:23:51.320Z,0.80
2023-01-18T12:26:20.665Z,0.93
2023-01-18T12:28:59.560Z,0.53
2023-01-18T12:31:34.276Z,0.30
2023-01-18T12:34:18.639Z,0.90
2023-01-18T12:37:09.369Z,0.87
2023-01-18T12:39:35.721Z,0.80
2023-01-18T12:42:05.914Z,0.97
2023-01-18T12:44:41.686Z,0.90
2023-01-18T12:47:15.881Z,0.90
2023-01-18T12:49:45.481Z,0.50
2023-01-18T12:52:18.933Z,0.80
2023-01-18T12:54:55.556Z,0.40
2023-01-18T12:57:22.281Z,0.60
2023-01-18T12:59:56.458Z,0.97
2023-01-18T13:02:34.251Z,0.63
2023-01-18T13:05:03.613Z,0.70
2023-01-18T13:07:35.848Z,0.80
2023-01-18T13:10:02.548Z,0.70
2023-01-18T13:12:29.274Z,0.70
2023-01-18T13:15:01.849Z,1.00
2023-01-18T13:17:30.990Z,0.43
2023-01-18T13:20:02.360Z,0.70
2023-01-18T13:22:35.147Z,0.77
2023-01-18T13:25:20.019Z,0.83
2023-01-18T13:28:00.356Z,0.60
2023-01-18T13:30:27.698Z,0.70
2023-01-18T13:32:54.286Z,0.53
2023-01-18T13:35:30.959Z,1.27
2023-01-18T13:37:59.819Z,0.77
2023-01-18T13:40:41.316Z,1.20
2023-01-18T13:43:26.696Z,0.60
2023-01-18T13:46:08.340Z,0.63
2023-01-18T13:48:52.963Z,0.70
2023-01-18T13:51:38.157Z,0.47
2023-01-18T13:54:04.894Z,0.47
2023-01-18T13:56:33.163Z,0.40
2023-01-18T13:59:01.580Z,0.60
2023-01-18T14:01:32.677Z,0.97
2023-01-18T14:04:20.434Z,1.00
2023-01-18T14:06:47.024Z,1.73
2023-01-18T14:09:15.007Z,0.80
2023-01-18T14:11:57.240Z,0.80
2023-01-18T14:14:24.269Z,0.80
2023-01-18T14:16:56.732Z,0.90
2023-01-18T14:19:23.728Z,1.17
2023-01-18T14:21:59.929Z,0.97
2023-01-18T14:24:37.653Z,0.80
2023-01-18T14:27:04.977Z,0.90
2023-01-18T14:29:35.739Z,0.70
2023-01-18T14:32:05.219Z,0.73
2023-01-18T14:34:36.455Z,0.40
2023-01-18T14:37:03.763Z,0.60
2023-01-18T14:39:32.519Z,0.73
2023-01-18T14:42:03.929Z,1.10
2023-01-18T14:44:56.861Z,1.03
2023-01-18T14:47:25.324Z,0.63
2023-01-18T14:49:52.033Z,0.70
2023-01-18T14:52:18.556Z,0.60
2023-01-18T14:54:51.961Z,0.77
2023-01-18T14:57:19.543Z,0.97
2023-01-18T14:59:52.973Z,0.53
2023-01-18T15:02:22.580Z,0.80
2023-01-18T15:04:49.581Z,0.90
2023-01-18T15:07:23.448Z,0.70
2023-01-18T15:09:50.029Z,1.13
2023-01-18T15:12:19.752Z,1.20
2023-01-18T15:14:47.568Z,0.70
2023-01-18T15:17:21.535Z,0.90
2023-01-18T15:19:49.782Z,0.60
2023-01-18T15:22:16.853Z,0.80
2023-01-18T15:24:44.249Z,0.80
2023-01-18T15:27:15.129Z,0.90
2023-01-18T15:29:46.178Z,0.73
2023-01-18T15:32:13.722Z,0.83
2023-01-18T15:34:42.057Z,0.63
2023-01-18T15:37:12.646Z,0.80
2023-01-18T15:39:48.078Z,0.83
2023-01-18T15:42:15.331Z,0.90
2023-01-18T15:44:49.015Z,1.07
2023-01-18T15:47:16.710Z,0.90
2023-01-18T15:49:54.466Z,0.70
2023-01-18T15:52:39.549Z,0.60
2023-01-18T15:55:07.332Z,0.70
2023-01-18T15:57:34.989Z,1.13
2023-01-18T16:00:02.455Z,2.03
2023-01-18T16:02:31.030Z,0.93
2023-01-18T16:05:19.932Z,1.07
2023-01-18T16:07:47.589Z,0.90
2023-01-18T16:10:16.771Z,0.83
2023-01-18T16:12:43.411Z,0.50
2023-01-18T16:15:26.118Z,0.90
2023-01-18T16:17:54.745Z,1.00
2023-01-18T16:20:21.408Z,1.00
2023-01-18T16:22:48.281Z,0.87
2023-01-18T16:25:20.908Z,0.87
2023-01-18T16:27:51.789Z,1.23
2023-01-18T16:30:18.210Z,0.90
2023-01-18T16:32:44.571Z,0.90
2023-01-18T16:35:16.211Z,1.00
2023-01-18T16:37:44.681Z,1.73
2023-01-18T16:40:15.538Z,1.30
2023-01-18T16:43:03.368Z,1.10
2023-01-18T16:45:30.795Z,1.00
2023-01-18T16:47:57.514Z,2.60
2023-01-18T16:50:24.060Z,1.23
2023-01-18T16:52:50.384Z,0.97
2023-01-18T16:55:18.009Z,1.63
2023-01-18T16:57:45.027Z,1.30
2023-01-18T17:00:18.529Z,1.17
2023-01-18T17:02:45.099Z,1.27
2023-01-18T17:05:11.492Z,1.13
2023-01-18T17:07:37.788Z,1.63
2023-01-18T17:10:11.319Z,1.73
2023-01-18T17:12:39.525Z,2.00
2023-01-18T17:15:06.329Z,1.73
2023-01-18T17:17:32.671Z,1.40
2023-01-18T17:19:59.091Z,1.43
2023-01-18T17:22:25.408Z,2.37
2023-01-18T17:24:54.317Z,1.33
2023-01-18T17:27:20.853Z,1.53
2023-01-18T17:29:47.311Z,1.17
2023-01-18T17:32:15.520Z,1.47
2023-01-18T17:34:41.863Z,1.10
2023-01-18T17:37:08.338Z,1.73
2023-01-18T17:39:43.841Z,1.70
2023-01-18T17:42:29.863Z,1.70
2023-01-18T17:45:03.305Z,1.47
2023-01-18T17:47:30.112Z,1.33
2023-01-18T17:49:56.692Z,1.87
2023-01-18T17:52:23.096Z,1.23
2023-01-18T17:54:49.460Z,1.53
2023-01-18T17:57:16.043Z,1.20
2023-01-18T17:59:42.402Z,1.30
2023-01-18T18:02:09.449Z,1.57
2023-01-18T18:04:36.354Z,2.30
2023-01-18T18:07:02.701Z,1.30
2023-01-18T18:09:29.141Z,0.93
2023-01-18T18:11:55.505Z,1.50
2023-01-18T18:14:22.221Z,1.03
2023-01-18T18:16:48.641Z,1.10
2023-01-18T18:19:15.259Z,1.70
2023-01-18T18:21:42.238Z,1.43
2023-01-18T18:24:08.666Z,1.37
2023-01-18T18:26:35.200Z,2.00
2023-01-18T18:29:01.515Z,1.40
2023-01-18T18:31:27.859Z,1.50
2023-01-18T18:33:54.214Z,1.40
2023-01-18T18:36:22.114Z,1.03
2023-01-18T18:38:48.423Z,1.40
2023-01-18T18:41:14.742Z,2.07
2023-01-18T18:43:41.042Z,1.23
2023-01-18T18:46:07.424Z,1.50
2023-01-18T18:48:33.751Z,1.47
2023-01-18T18:51:00.112Z,1.63
2023-01-18T18:53:37.081Z,1.80
2023-01-18T18:56:06.821Z,1.57
2023-01-18T18:58:34.031Z,1.03
2023-01-18T19:01:00.679Z,1.60
2023-01-18T19:03:27.091Z,2.03
2023-01-18T19:05:53.374Z,1.43
2023-01-18T19:08:19.956Z,1.50
2023-01-18T19:10:48.155Z,1.90
2023-01-18T19:13:14.550Z,1.20
2023-01-18T19:15:47.503Z,1.47
2023-01-18T19:18:15.132Z,1.23
2023-01-18T19:20:42.599Z,1.60
2023-01-18T19:23:09.189Z,1.60
2023-01-18T19:25:37.464Z,1.40
2023-01-18T19:28:03.820Z,1.40
2023-01-18T19:30:31.547Z,1.67
2023-01-18T19:32:59.965Z,1.30
2023-01-18T19:35:27.085Z,1.70
2023-01-18T19:37:53.855Z,1.23
2023-01-18T19:40:20.264Z,1.43
2023-01-18T19:42:59.652Z,1.80
2023-01-18T19:45:28.620Z,1.53
2023-01-18T19:47:56.106Z,1.80
2023-01-18T19:50:23.200Z,1.73
2023-01-18T19:52:50.285Z,1.40
2023-01-18T19:55:17.550Z,1.27
2023-01-18T19:57:43.991Z,1.50
2023-01-18T20:00:10.675Z,1.27
2023-01-18T20:02:40.197Z,1.73
2023-01-18T20:05:06.893Z,1.53
2023-01-18T20:07:33.227Z,1.27
2023-01-18T20:09:59.638Z,1.50
2023-01-18T20:12:29.259Z,1.13
2023-01-18T20:14:55.578Z,0.90
2023-01-18T20:17:21.999Z,1.13
2023-01-18T20:19:50.818Z,1.00
2023-01-18T20:22:17.219Z,0.73
2023-01-18T20:24:44.269Z,0.60
2023-01-18T20:27:16.188Z,1.10
2023-01-18T20:29:43.337Z,0.60
2023-01-18T20:32:16.177Z,0.70
2023-01-18T20:34:44.609Z,0.60
2023-01-18T20:37:11.886Z,1.60
2023-01-18T20:39:38.276Z,0.50
2023-01-18T20:42:04.893Z,0.57
2023-01-18T20:44:31.323Z,0.57
2023-01-18T20:46:57.683Z,0.40
2023-01-18T20:49:33.204Z,0.30
2023-01-18T20:52:04.901Z,0.53
2023-01-18T20:54:31.215Z,0.50
2023-01-18T20:56:58.789Z,0.83
2023-01-18T20:59:25.289Z,0.90
2023-01-18T21:01:51.672Z,0.73
2023-01-18T21:04:20.563Z,0.57
2023-01-18T21:06:47.883Z,0.77
2023-01-18T21:09:14.202Z,1.00
2023-01-18T21:11:40.526Z,0.97
2023-01-18T21:14:07.235Z,1.07
2023-01-18T21:16:33.674Z,1.77
2023-01-18T21:19:00.148Z,1.30
2023-01-18T21:21:31.590Z,1.30
2023-01-18T21:23:58.054Z,1.77
2023-01-18T21:26:24.495Z,1.87
2023-01-18T21:28:50.889Z,1.60
2023-01-18T21:31:17.505Z,1.87
2023-01-18T21:33:43.886Z,1.10
2023-01-18T21:36:14.069Z,1.73
2023-01-18T21:38:40.379Z,1.87
2023-01-18T21:41:25.380Z,1.93
2023-01-18T21:44:12.482Z,1.57
2023-01-18T21:46:39.136Z,1.80
2023-01-18T21:49:06.653Z,1.40
2023-01-18T21:51:52.173Z,2.60
2023-01-18T21:54:18.565Z,2.17
2023-01-18T21:56:45.375Z,1.10
2023-01-18T21:59:12.661Z,1.60
2023-01-18T22:01:40.564Z,1.40
2023-01-18T22:04:26.676Z,1.70
2023-01-18T22:06:54.121Z,0.97
2023-01-18T22:09:20.629Z,1.17
2023-01-18T22:11:47.173Z,1.07
2023-01-18T22:14:13.748Z,0.90
2023-01-18T22:16:40.279Z,1.87
2023-01-18T22:19:06.935Z,0.70
2023-01-18T22:21:33.574Z,0.53
2023-01-18T22:24:00.320Z,0.70
2023-01-18T22:26:28.019Z,1.13
2023-01-18T22:28:54.308Z,0.80
2023-01-18T22:31:20.871Z,1.00
2023-01-18T22:33:48.374Z,0.60
2023-01-18T22:36:18.954Z,0.50
2023-01-18T22:38:45.580Z,0.73
2023-01-18T22:41:13.380Z,0.87
2023-01-18T22:43:40.451Z,1.43
2023-01-18T22:46:08.135Z,1.23
2023-01-18T22:48:35.723Z,1.10
2023-01-18T22:51:02.633Z,1.27
2023-01-18T22:53:30.800Z,1.30
2023-01-18T22:56:26.640Z,1.27
2023-01-18T22:58:53.206Z,1.00
2023-01-18T23:01:21.863Z,1.23
2023-01-18T23:03:49.181Z,1.37
2023-01-18T23:06:16.172Z,1.47
2023-01-18T23:08:42.738Z,0.90
2023-01-18T23:11:10.877Z,1.50
2023-01-18T23:13:37.811Z,1.60
2023-01-18T23:16:32.028Z,1.60
2023-01-18T23:18:59.367Z,1.43
2023-01-18T23:21:25.638Z,1.50
2023-01-18T23:23:54.058Z,1.67
2023-01-18T23:26:20.373Z,1.50
2023-01-18T23:28:46.961Z,1.10
2023-01-18T23:31:17.576Z,1.67
2023-01-18T23:33:44.439Z,0.97
2023-01-18T23:36:11.464Z,0.70
2023-01-18T23:38:57.022Z,0.53
2023-01-18T23:41:42.295Z,0.40
2023-01-18T23:44:27.220Z,0.73
2023-01-18T23:47:13.088Z,0.77
2023-01-18T23:49:58.123Z,1.17
2023-01-18T23:52:42.926Z,0.87
2023-01-18T23:55:09.536Z,0.80
2023-01-18T23:57:35.805Z,0.90
